createdAt,value
2019-01-27T00:00:52.455Z,10.00
2019-01-27T00:03:19.787Z,9.03
2019-01-27T00:05:47.134Z,6.10
2019-01-27T00:08:14.635Z,8.47
2019-01-27T00:10:42.064Z,8.70
2019-01-27T00:13:09.372Z,9.83
2019-01-27T00:15:36.811Z,8.50
2019-01-27T00:18:04.226Z,9.70
2019-01-27T00:20:31.719Z,8.67
2019-01-27T00:22:59.007Z,8.87
2019-01-27T00:25:26.220Z,8.90
2019-01-27T00:27:53.475Z,9.03
2019-01-27T00:30:21.299Z,9.00
2019-01-27T00:32:48.715Z,9.57
2019-01-27T00:35:16.155Z,8.33
2019-01-27T00:37:43.645Z,8.33
2019-01-27T00:40:11.651Z,7.97
2019-01-27T00:42:38.977Z,8.90
2019-01-27T00:45:08.345Z,9.20
2019-01-27T00:47:35.869Z,7.77
2019-01-27T00:50:05.022Z,7.33
2019-01-27T00:52:32.381Z,9.17
2019-01-27T00:54:59.730Z,9.20
2019-01-27T00:57:27.071Z,8.20
2019-01-27T00:59:54.516Z,8.77
2019-01-27T01:02:21.850Z,9.40
2019-01-27T01:04:49.159Z,8.90
2019-01-27T01:07:16.468Z,7.57
2019-01-27T01:09:43.725Z,9.53
2019-01-27T01:12:11.008Z,9.57
2019-01-27T01:14:38.317Z,9.83
2019-01-27T01:17:05.687Z,9.60
2019-01-27T01:19:33.053Z,10.17
2019-01-27T01:22:00.423Z,9.17
2019-01-27T01:24:27.891Z,9.73
2019-01-27T01:26:55.424Z,9.90
2019-01-27T01:29:22.655Z,9.07
2019-01-27T01:31:50.012Z,9.07
2019-01-27T01:34:17.478Z,10.10
2019-01-27T01:36:44.704Z,10.80
2019-01-27T01:39:11.962Z,10.27
2019-01-27T01:41:39.307Z,8.50
2019-01-27T01:44:06.555Z,10.23
2019-01-27T01:46:33.800Z,9.07
2019-01-27T01:49:01.150Z,10.60
2019-01-27T01:51:28.362Z,9.67
2019-01-27T01:53:55.671Z,10.03
2019-01-27T01:56:23.036Z,6.43
2019-01-27T01:58:50.395Z,9.20
2019-01-27T02:01:17.978Z,6.73
2019-01-27T02:03:45.284Z,7.77
2019-01-27T02:06:12.622Z,9.73
2019-01-27T02:08:39.859Z,10.07
2019-01-27T02:11:07.174Z,10.63
2019-01-27T02:13:34.389Z,8.87
2019-01-27T02:16:06.123Z,10.20
2019-01-27T02:18:33.801Z,10.87
2019-01-27T02:21:01.499Z,9.53
2019-01-27T02:23:28.836Z,9.77
2019-01-27T02:25:56.249Z,10.17
2019-01-27T02:28:23.568Z,9.13
2019-01-27T02:30:50.835Z,10.20
2019-01-27T02:33:18.170Z,11.17
2019-01-27T02:35:45.536Z,8.43
2019-01-27T02:38:12.934Z,7.53
2019-01-27T02:40:40.301Z,10.77
2019-01-27T02:43:07.622Z,10.17
2019-01-27T02:45:34.979Z,9.20
2019-01-27T02:48:02.274Z,8.77
2019-01-27T02:50:29.615Z,8.60
2019-01-27T02:52:56.835Z,9.20
2019-01-27T02:55:24.044Z,8.83
2019-01-27T02:57:51.383Z,9.47
2019-01-27T03:00:18.765Z,10.70
2019-01-27T03:02:46.110Z,8.67
2019-01-27T03:05:28.961Z,8.60
2019-01-27T03:07:56.235Z,8.63
2019-01-27T03:10:23.528Z,9.80
2019-01-27T03:12:50.782Z,9.23
2019-01-27T03:15:18.386Z,10.67
2019-01-27T03:17:45.773Z,9.87
2019-01-27T03:20:13.096Z,7.60
2019-01-27T03:22:40.356Z,10.40
2019-01-27T03:25:09.154Z,9.53
2019-01-27T03:27:36.405Z,10.33
2019-01-27T03:30:06.672Z,9.13
2019-01-27T03:32:34.026Z,8.50
2019-01-27T03:35:01.320Z,10.53
2019-01-27T03:37:28.656Z,10.50
2019-01-27T03:39:55.958Z,10.80
2019-01-27T03:42:23.279Z,9.83
2019-01-27T03:44:50.505Z,11.47
2019-01-27T03:47:17.837Z,9.77
2019-01-27T03:49:45.160Z,10.63
2019-01-27T03:52:12.521Z,11.33
2019-01-27T03:54:39.832Z,11.40
2019-01-27T03:57:07.129Z,10.30
2019-01-27T03:59:34.469Z,10.67
2019-01-27T04:02:01.678Z,11.23
2019-01-27T04:04:29.009Z,10.50
2019-01-27T04:06:56.333Z,10.93
2019-01-27T04:09:23.651Z,10.70
2019-01-27T04:11:51.008Z,8.40
2019-01-27T04:14:18.243Z,11.20
2019-01-27T04:16:45.562Z,9.17
2019-01-27T04:19:12.784Z,9.23
2019-01-27T04:21:40.135Z,10.30
2019-01-27T04:24:07.348Z,9.97
2019-01-27T04:26:34.700Z,10.27
2019-01-27T04:29:02.724Z,11.03
2019-01-27T04:31:30.062Z,10.70
2019-01-27T04:33:57.417Z,10.67
2019-01-27T04:36:24.743Z,11.40
2019-01-27T04:38:51.993Z,10.60
2019-01-27T04:41:19.180Z,10.00
2019-01-27T04:43:46.416Z,11.77
2019-01-27T04:46:13.619Z,10.77
2019-01-27T04:48:40.861Z,11.17
2019-01-27T04:51:08.278Z,10.07
2019-01-27T04:53:35.710Z,11.93
2019-01-27T04:56:03.190Z,13.10
2019-01-27T04:58:30.651Z,12.43
2019-01-27T05:00:57.854Z,13.50
2019-01-27T05:03:50.917Z,8.97
2019-01-27T05:06:18.223Z,12.03
2019-01-27T05:08:45.527Z,12.17
2019-01-27T05:11:12.790Z,13.37
2019-01-27T05:13:40.087Z,12.97
2019-01-27T05:16:07.387Z,13.33
2019-01-27T05:18:34.621Z,11.43
2019-01-27T05:21:02.010Z,12.13
2019-01-27T05:23:29.343Z,14.20
2019-01-27T05:25:56.552Z,12.83
2019-01-27T05:28:23.905Z,14.83
2019-01-27T05:30:51.181Z,13.17
2019-01-27T05:33:18.521Z,14.67
2019-01-27T05:35:45.759Z,15.40
2019-01-27T05:38:12.967Z,15.47
2019-01-27T05:40:40.171Z,17.57
2019-01-27T05:43:07.402Z,15.73
2019-01-27T05:45:34.644Z,18.07
2019-01-27T05:48:02.043Z,15.50
2019-01-27T05:50:29.379Z,15.43
2019-01-27T05:52:56.707Z,18.53
2019-01-27T05:55:24.028Z,15.63
2019-01-27T05:57:51.379Z,20.00
2019-01-27T06:00:26.135Z,15.43
2019-01-27T06:02:53.358Z,20.80
2019-01-27T06:05:20.644Z,20.60
2019-01-27T06:07:47.912Z,13.03
2019-01-27T06:10:15.143Z,15.30
2019-01-27T06:12:42.440Z,18.10
2019-01-27T06:15:10.985Z,12.77
2019-01-27T06:17:38.556Z,19.23
2019-01-27T06:20:07.415Z,22.87
2019-01-27T06:22:34.697Z,23.63
2019-01-27T06:25:02.016Z,18.40
2019-01-27T06:27:29.335Z,23.43
2019-01-27T06:29:56.668Z,22.77
2019-01-27T06:32:41.575Z,19.13
2019-01-27T06:35:08.928Z,21.97
2019-01-27T06:37:36.264Z,20.50
2019-01-27T06:40:04.194Z,23.43
2019-01-27T06:42:31.383Z,28.57
2019-01-27T06:44:58.632Z,17.63
2019-01-27T06:47:25.873Z,21.97
2019-01-27T06:49:53.171Z,24.50
2019-01-27T06:52:20.525Z,17.70
2019-01-27T06:54:47.839Z,24.53
2019-01-27T06:57:15.166Z,23.30
2019-01-27T07:00:08.172Z,19.10
2019-01-27T07:02:46.352Z,23.80
2019-01-27T07:05:33.461Z,23.40
2019-01-27T07:08:29.468Z,18.80
2019-01-27T07:11:31.554Z,20.87
2019-01-27T07:14:17.275Z,22.13
2019-01-27T07:17:19.419Z,23.87
2019-01-27T07:20:21.066Z,20.53
2019-01-27T07:23:00.890Z,21.17
2019-01-27T07:26:03.038Z,21.77
2019-01-27T07:28:50.027Z,25.00
2019-01-27T07:31:42.729Z,21.23
2019-01-27T07:34:49.292Z,23.37
2019-01-27T07:37:35.192Z,19.17
2019-01-27T07:40:23.206Z,24.60
2019-01-27T07:42:58.104Z,18.80
2019-01-27T07:45:33.108Z,22.97
2019-01-27T07:48:20.087Z,21.70
2019-01-27T07:50:57.293Z,24.30
2019-01-27T07:53:51.104Z,20.40
2019-01-27T07:56:38.000Z,21.60
2019-01-27T07:59:40.129Z,18.83
2019-01-27T08:02:17.763Z,22.17
2019-01-27T08:05:04.123Z,24.53
2019-01-27T08:07:46.043Z,18.23
2019-01-27T08:10:40.844Z,17.73
2019-01-27T08:13:26.206Z,20.60
2019-01-27T08:16:27.987Z,18.20
2019-01-27T08:19:09.874Z,19.67
2019-01-27T08:22:05.743Z,20.00
2019-01-27T08:25:04.714Z,20.83
2019-01-27T08:27:50.528Z,17.53
2019-01-27T08:30:43.200Z,20.27
2019-01-27T08:33:28.111Z,20.30
2019-01-27T08:36:00.411Z,17.90
2019-01-27T08:38:33.228Z,19.87
2019-01-27T08:41:16.753Z,20.60
2019-01-27T08:44:02.720Z,19.57
2019-01-27T08:46:34.160Z,14.53
2019-01-27T08:49:01.514Z,19.40
2019-01-27T08:51:28.971Z,17.43
2019-01-27T08:53:56.289Z,21.93
2019-01-27T08:56:23.475Z,19.37
2019-01-27T08:58:50.623Z,18.33
2019-01-27T09:01:43.752Z,19.80
2019-01-27T09:04:16.504Z,19.40
2019-01-27T09:06:50.275Z,18.57
2019-01-27T09:09:35.724Z,19.83
2019-01-27T09:12:22.270Z,16.17
2019-01-27T09:15:02.274Z,16.97
2019-01-27T09:17:55.622Z,19.40
2019-01-27T09:20:38.264Z,18.17
2019-01-27T09:23:23.627Z,18.80
2019-01-27T09:26:29.183Z,18.23
2019-01-27T09:29:16.144Z,17.17
2019-01-27T09:31:51.538Z,10.33
2019-01-27T09:34:41.276Z,14.40
2019-01-27T09:37:46.642Z,15.17
2019-01-27T09:40:31.929Z,15.40
2019-01-27T09:43:25.013Z,12.10
2019-01-27T09:46:27.115Z,17.80
2019-01-27T09:49:12.348Z,15.03
2019-01-27T09:52:02.236Z,16.87
2019-01-27T09:55:04.352Z,15.40
2019-01-27T09:57:39.700Z,14.87
2019-01-27T10:00:20.435Z,11.90
2019-01-27T10:03:05.937Z,17.20
2019-01-27T10:05:51.468Z,16.93
2019-01-27T10:08:50.521Z,12.07
2019-01-27T10:11:31.176Z,16.47
2019-01-27T10:14:15.542Z,15.27
2019-01-27T10:17:03.724Z,8.30
2019-01-27T10:19:59.506Z,15.80
2019-01-27T10:22:36.952Z,15.67
2019-01-27T10:25:32.288Z,16.23
2019-01-27T10:28:23.028Z,14.40
2019-01-27T10:31:00.709Z,16.37
2019-01-27T10:33:59.910Z,16.55
2019-01-27T10:36:40.772Z,13.57
2019-01-27T10:39:34.200Z,14.00
2019-01-27T10:42:25.252Z,14.33
2019-01-27T10:45:20.780Z,15.77
2019-01-27T10:48:06.381Z,14.13
2019-01-27T10:50:53.268Z,11.13
2019-01-27T10:53:52.410Z,15.40
2019-01-27T10:56:38.132Z,11.77
2019-01-27T10:59:17.131Z,13.87
2019-01-27T11:02:06.681Z,11.80
2019-01-27T11:04:49.879Z,12.77
2019-01-27T11:07:29.432Z,10.87
2019-01-27T11:10:25.187Z,9.70
2019-01-27T11:13:27.024Z,12.40
2019-01-27T11:16:19.827Z,12.23
2019-01-27T11:18:53.282Z,12.00
2019-01-27T11:21:30.766Z,10.50
2019-01-27T11:24:20.543Z,12.27
2019-01-27T11:27:16.197Z,10.53
2019-01-27T11:30:05.872Z,10.53
2019-01-27T11:32:43.696Z,11.90
2019-01-27T11:35:30.628Z,10.83
2019-01-27T11:38:16.251Z,9.40
2019-01-27T11:41:02.107Z,10.73
2019-01-27T11:43:47.368Z,10.47
2019-01-27T11:46:27.224Z,6.13
2019-01-27T11:48:59.967Z,8.83
2019-01-27T11:51:47.032Z,8.77
2019-01-27T11:54:14.339Z,9.90
2019-01-27T11:56:41.672Z,8.47
2019-01-27T11:59:08.922Z,8.90
2019-01-27T12:01:36.409Z,8.77
2019-01-27T12:04:04.223Z,8.20
2019-01-27T12:06:31.726Z,7.97
2019-01-27T12:08:58.948Z,8.50
2019-01-27T12:11:26.407Z,8.37
2019-01-27T12:13:53.628Z,6.23
2019-01-27T12:16:20.884Z,7.37
2019-01-27T12:18:49.793Z,8.23
2019-01-27T12:21:17.147Z,6.40
2019-01-27T12:23:44.571Z,6.97
2019-01-27T12:26:11.896Z,6.87
2019-01-27T12:28:39.331Z,7.47
2019-01-27T12:31:06.656Z,7.10
2019-01-27T12:33:33.990Z,7.17
2019-01-27T12:36:01.348Z,7.37
2019-01-27T12:38:28.704Z,6.50
2019-01-27T12:40:56.086Z,6.77
2019-01-27T12:43:23.408Z,7.40
2019-01-27T12:45:50.614Z,6.70
2019-01-27T12:48:18.328Z,7.47
2019-01-27T12:50:45.672Z,7.47
2019-01-27T12:53:13.184Z,7.17
2019-01-27T12:55:40.528Z,8.03
2019-01-27T12:58:07.894Z,8.07
2019-01-27T13:00:38.771Z,7.53
2019-01-27T13:03:06.211Z,7.33
2019-01-27T13:05:33.431Z,8.60
2019-01-27T13:08:00.899Z,7.47
2019-01-27T13:10:28.208Z,7.13
2019-01-27T13:12:55.532Z,7.67
2019-01-27T13:15:22.883Z,7.37
2019-01-27T13:17:50.207Z,7.40
2019-01-27T13:20:17.553Z,7.90
2019-01-27T13:22:44.862Z,7.30
2019-01-27T13:25:13.616Z,7.33
2019-01-27T13:27:41.232Z,7.53
2019-01-27T13:30:15.160Z,7.50
2019-01-27T13:32:42.458Z,7.10
2019-01-27T13:35:09.913Z,7.07
2019-01-27T13:37:37.278Z,7.17
2019-01-27T13:40:07.794Z,7.07
2019-01-27T13:42:35.082Z,7.13
2019-01-27T13:45:02.587Z,6.60
2019-01-27T13:47:29.939Z,5.73
2019-01-27T13:49:57.183Z,7.83
2019-01-27T13:52:24.547Z,7.43
2019-01-27T13:54:51.869Z,7.50
2019-01-27T13:57:19.224Z,7.53
2019-01-27T13:59:46.592Z,7.23
2019-01-27T14:02:13.951Z,7.27
2019-01-27T14:04:48.309Z,6.27
2019-01-27T14:07:10.384Z,7.33
2019-01-27T14:09:37.838Z,6.33
2019-01-27T14:12:05.159Z,7.00
2019-01-27T14:14:32.482Z,6.57
2019-01-27T14:16:59.739Z,6.20
2019-01-27T14:19:27.194Z,6.03
2019-01-27T14:21:54.507Z,6.33
2019-01-27T14:24:21.855Z,6.87
2019-01-27T14:26:49.128Z,7.23
2019-01-27T14:29:16.342Z,6.63
2019-01-27T14:31:43.708Z,7.60
2019-01-27T14:34:11.020Z,6.83
2019-01-27T14:36:38.339Z,8.03
2019-01-27T14:39:07.409Z,6.80
2019-01-27T14:41:34.726Z,7.07
2019-01-27T14:44:01.985Z,6.70
2019-01-27T14:46:29.314Z,6.47
2019-01-27T14:48:56.462Z,7.17
2019-01-27T14:51:23.747Z,6.30
2019-01-27T14:53:51.059Z,7.80
2019-01-27T14:56:18.463Z,6.80
2019-01-27T14:58:45.808Z,6.90
2019-01-27T15:01:13.065Z,6.93
2019-01-27T15:03:40.392Z,7.90
2019-01-27T15:06:07.839Z,7.37
2019-01-27T15:08:35.079Z,8.20
2019-01-27T15:11:02.527Z,7.03
2019-01-27T15:13:29.955Z,8.17
2019-01-27T15:15:57.400Z,7.53
2019-01-27T15:18:24.964Z,7.10
2019-01-27T15:20:56.785Z,7.07
2019-01-27T15:23:24.151Z,5.40
2019-01-27T15:25:51.459Z,6.90
2019-01-27T15:28:18.702Z,6.97
2019-01-27T15:30:45.946Z,5.97
2019-01-27T15:33:13.199Z,7.30
2019-01-27T15:35:40.409Z,7.23
2019-01-27T15:38:07.852Z,7.80
2019-01-27T15:40:35.103Z,7.40
2019-01-27T15:43:02.626Z,7.37
2019-01-27T15:45:30.063Z,7.93
2019-01-27T15:47:57.372Z,8.10
2019-01-27T15:50:29.119Z,7.60
2019-01-27T15:52:56.419Z,8.00
2019-01-27T15:55:23.856Z,6.93
2019-01-27T15:57:51.176Z,8.17
2019-01-27T16:00:21.110Z,7.90
2019-01-27T16:02:48.526Z,8.50
2019-01-27T16:05:17.257Z,8.07
2019-01-27T16:07:44.581Z,7.70
2019-01-27T16:10:13.310Z,6.73
2019-01-27T16:12:40.608Z,8.07
2019-01-27T16:15:10.392Z,7.53
2019-01-27T16:17:37.703Z,7.57
2019-01-27T16:20:05.978Z,6.80
2019-01-27T16:22:33.327Z,7.80
2019-01-27T16:25:00.682Z,7.63
2019-01-27T16:27:28.040Z,8.83
2019-01-27T16:30:02.096Z,7.50
2019-01-27T16:32:40.353Z,8.00
2019-01-27T16:35:12.968Z,6.67
2019-01-27T16:37:40.571Z,9.43
2019-01-27T16:40:10.852Z,9.40
2019-01-27T16:42:38.240Z,9.40
2019-01-27T16:45:07.764Z,8.73
2019-01-27T16:47:35.116Z,8.40
2019-01-27T16:50:03.099Z,10.80
2019-01-27T16:52:30.588Z,8.60
2019-01-27T16:54:57.900Z,10.23
2019-01-27T16:57:25.204Z,10.10
2019-01-27T16:59:52.557Z,8.50
2019-01-27T17:02:19.774Z,9.77
2019-01-27T17:04:48.373Z,9.23
2019-01-27T17:07:15.668Z,9.93
2019-01-27T17:09:42.976Z,9.00
2019-01-27T17:12:10.680Z,10.30
2019-01-27T17:14:38.169Z,10.50
2019-01-27T17:17:05.500Z,8.87
2019-01-27T17:19:32.845Z,10.67
2019-01-27T17:22:00.063Z,11.63
2019-01-27T17:24:28.259Z,10.67
2019-01-27T17:26:55.673Z,10.50
2019-01-27T17:29:23.037Z,11.80
2019-01-27T17:31:50.464Z,10.67
2019-01-27T17:34:17.797Z,10.57
2019-01-27T17:36:45.108Z,11.67
2019-01-27T17:39:12.473Z,11.23
2019-01-27T17:41:39.797Z,12.90
2019-01-27T17:44:07.047Z,11.70
2019-01-27T17:46:34.307Z,11.00
2019-01-27T17:49:01.645Z,11.13
2019-01-27T17:51:29.265Z,10.33
2019-01-27T17:53:58.875Z,10.93
2019-01-27T17:56:26.087Z,11.80
2019-01-27T17:59:18.675Z,10.83
2019-01-27T18:02:03.992Z,11.90
2019-01-27T18:04:45.241Z,13.17
2019-01-27T18:07:19.990Z,12.93
2019-01-27T18:10:05.625Z,12.37
2019-01-27T18:12:46.974Z,12.37
2019-01-27T18:15:14.326Z,12.00
2019-01-27T18:17:41.638Z,11.37
2019-01-27T18:20:12.004Z,13.20
2019-01-27T18:22:39.403Z,11.50
2019-01-27T18:25:08.137Z,9.23
2019-01-27T18:27:35.480Z,12.00
2019-01-27T18:30:05.625Z,12.77
2019-01-27T18:32:32.970Z,11.90
2019-01-27T18:35:00.347Z,12.47
2019-01-27T18:37:27.628Z,13.17
2019-01-27T18:39:54.887Z,11.23
2019-01-27T18:42:22.245Z,12.77
2019-01-27T18:44:49.620Z,9.20
2019-01-27T18:47:16.985Z,13.97
2019-01-27T18:49:44.373Z,12.63
2019-01-27T18:52:11.686Z,13.40
2019-01-27T18:55:01.242Z,12.77
2019-01-27T18:57:34.819Z,14.17
2019-01-27T19:00:25.313Z,13.87
2019-01-27T19:03:12.371Z,13.70
2019-01-27T19:05:59.684Z,10.87
2019-01-27T19:08:43.896Z,12.37
2019-01-27T19:11:37.544Z,12.37
2019-01-27T19:14:12.709Z,11.80
2019-01-27T19:16:51.079Z,10.83
2019-01-27T19:19:29.654Z,12.13
2019-01-27T19:22:10.791Z,13.00
2019-01-27T19:24:49.273Z,12.20
2019-01-27T19:27:34.880Z,13.53
2019-01-27T19:30:21.836Z,14.93
2019-01-27T19:33:05.582Z,13.97
2019-01-27T19:35:55.480Z,13.97
2019-01-27T19:38:44.493Z,12.03
2019-01-27T19:41:29.163Z,13.07
2019-01-27T19:44:12.312Z,12.47
2019-01-27T19:46:48.849Z,13.90
2019-01-27T19:49:34.639Z,11.83
2019-01-27T19:52:30.714Z,13.10
2019-01-27T19:55:13.467Z,12.70
2019-01-27T19:57:58.919Z,12.00
2019-01-27T20:01:01.168Z,11.70
2019-01-27T20:04:03.100Z,13.13
2019-01-27T20:06:52.660Z,12.13
2019-01-27T20:09:30.840Z,13.17
2019-01-27T20:12:09.024Z,13.67
2019-01-27T20:15:04.828Z,12.17
2019-01-27T20:17:40.632Z,11.77
2019-01-27T20:20:28.485Z,12.93
2019-01-27T20:23:11.408Z,13.63
2019-01-27T20:25:56.907Z,12.73
2019-01-27T20:28:56.036Z,12.80
2019-01-27T20:31:41.451Z,12.47
2019-01-27T20:34:27.472Z,12.37
2019-01-27T20:37:20.322Z,13.47
2019-01-27T20:40:05.711Z,13.60
2019-01-27T20:42:52.728Z,12.47
2019-01-27T20:45:35.899Z,12.63
2019-01-27T20:48:25.650Z,12.07
2019-01-27T20:51:05.912Z,12.67
2019-01-27T20:53:53.732Z,11.10
2019-01-27T20:56:43.508Z,11.17
2019-01-27T20:59:42.596Z,12.67
2019-01-27T21:02:17.734Z,12.50
2019-01-27T21:05:00.420Z,12.13
2019-01-27T21:07:53.065Z,12.53
2019-01-27T21:10:57.931Z,11.10
2019-01-27T21:13:47.856Z,12.70
2019-01-27T21:16:31.268Z,12.23
2019-01-27T21:19:12.383Z,13.00
2019-01-27T21:21:39.608Z,10.97
2019-01-27T21:24:06.956Z,12.30
2019-01-27T21:26:34.343Z,11.93
2019-01-27T21:29:01.586Z,12.30
2019-01-27T21:31:29.319Z,12.97
2019-01-27T21:33:56.599Z,12.10
2019-01-27T21:36:24.163Z,12.23
2019-01-27T21:38:51.403Z,12.10
2019-01-27T21:41:20.816Z,11.07
2019-01-27T21:43:49.384Z,11.77
2019-01-27T21:46:17.781Z,12.23
2019-01-27T21:48:45.470Z,11.67
2019-01-27T21:51:16.072Z,11.50
2019-01-27T21:53:43.994Z,12.40
2019-01-27T21:56:11.653Z,12.83
2019-01-27T21:58:38.980Z,11.83
2019-01-27T22:01:06.824Z,12.37
2019-01-27T22:03:34.175Z,11.43
2019-01-27T22:06:01.643Z,11.03
2019-01-27T22:08:29.100Z,11.23
2019-01-27T22:10:56.827Z,11.90
2019-01-27T22:13:24.175Z,12.17
2019-01-27T22:15:51.391Z,11.50
2019-01-27T22:18:18.649Z,12.80
2019-01-27T22:20:45.979Z,12.00
2019-01-27T22:23:13.291Z,11.63
2019-01-27T22:25:40.536Z,11.43
2019-01-27T22:28:07.883Z,10.77
2019-01-27T22:30:35.129Z,11.17
2019-01-27T22:33:02.756Z,12.10
2019-01-27T22:35:30.067Z,12.07
2019-01-27T22:37:57.418Z,12.03
2019-01-27T22:40:24.884Z,13.20
2019-01-27T22:42:52.343Z,11.80
2019-01-27T22:45:19.639Z,11.83
2019-01-27T22:47:47.132Z,11.80
2019-01-27T22:50:15.982Z,12.70
2019-01-27T22:52:43.194Z,11.90
2019-01-27T22:55:10.770Z,12.63
2019-01-27T22:57:37.977Z,13.07
2019-01-27T23:00:16.159Z,11.97
2019-01-27T23:02:43.644Z,11.93
2019-01-27T23:05:10.953Z,12.23
2019-01-27T23:07:38.287Z,12.17
2019-01-27T23:10:05.915Z,14.10
2019-01-27T23:12:33.431Z,13.90
2019-01-27T23:15:00.702Z,11.33
2019-01-27T23:17:28.033Z,12.47
2019-01-27T23:19:55.395Z,12.37
2019-01-27T23:22:22.826Z,11.60
2019-01-27T23:24:50.067Z,12.80
2019-01-27T23:27:17.406Z,13.47
2019-01-27T23:29:44.644Z,12.43
2019-01-27T23:32:12.001Z,13.87
2019-01-27T23:34:39.199Z,13.00
2019-01-27T23:37:06.444Z,12.63
2019-01-27T23:39:33.814Z,12.87
2019-01-27T23:42:01.248Z,13.23
2019-01-27T23:44:28.591Z,13.07
2019-01-27T23:46:55.936Z,12.93
2019-01-27T23:49:23.182Z,12.13
2019-01-27T23:51:50.406Z,11.97
2019-01-27T23:54:17.666Z,12.10
2019-01-27T23:56:44.897Z,12.00
2019-01-27T23:59:12.097Z,11.07
